Weather at Flying I Ranch Airport

Public forecast

Using degrees Fahrenheit for public forecast. Weather courtesy of forecast.io.

Closest aviation weather report (METAR) to Flying I Ranch Airport

Closest report is Dyersburg Regional Airport, 15.8 nm (29.3 km) NNE. Retrieved 2021/07/24 21:56 UTC (1 hour ago):

KDYR 242156Z AUTO 27006KT 10SM CLR 33/24 A2999 RMK AO2 SLP158 T03330244

Closest aviation forecast (TAF) to Flying I Ranch Airport

Closest forecast is McKellar-Sipes Regional Airport, 32.5 nm (60.2 km) ESE. Retrieved 2021/07/24 18:36 UTC (4 hours ago):

TAF KMKL 241735Z 2418/2518 25004KT P6SM VCSH SCT045 FM250100 VRB03KT P6SM FEW250 TEMPO 2508/2512 3SM BR FEW250 FM251600 24004KT P6SM SCT035